sensor_id;sensor_type;location;lat;lon;timestamp;P1;durP1;ratioP1;P2;durP2;ratioP2
46377;SDS011;32083;47.360;9.650;2023-11-18T05:03:07;11.82;;;9.13;;
46377;SDS011;32083;47.360;9.650;2023-11-18T05:05:38;13.18;;;9.60;;
46377;SDS011;32083;47.360;9.650;2023-11-18T05:08:21;11.73;;;9.35;;
46377;SDS011;32083;47.360;9.650;2023-11-18T05:10:47;11.98;;;9.70;;
46377;SDS011;32083;47.360;9.650;2023-11-18T05:13:14;14.13;;;10.27;;
46377;SDS011;32083;47.360;9.650;2023-11-18T05:15:45;13.35;;;10.68;;
46377;SDS011;32083;47.360;9.650;2023-11-18T05:18:12;18.48;;;12.65;;
46377;SDS011;32083;47.360;9.650;2023-11-18T05:20:41;16.02;;;13.07;;
46377;SDS011;32083;47.360;9.650;2023-11-18T05:23:08;20.15;;;12.80;;
46377;SDS011;32083;47.360;9.650;2023-11-18T05:25:35;20.13;;;13.50;;
46377;SDS011;32083;47.360;9.650;2023-11-18T05:28:02;23.17;;;13.68;;
46377;SDS011;32083;47.360;9.650;2023-11-18T05:30:30;20.17;;;13.27;;
46377;SDS011;32083;47.360;9.650;2023-11-18T05:32:56;31.45;;;15.15;;
46377;SDS011;32083;47.360;9.650;2023-11-18T05:35:23;21.83;;;14.15;;
46377;SDS011;32083;47.360;9.650;2023-11-18T05:37:54;21.90;;;14.00;;
46377;SDS011;32083;47.360;9.650;2023-11-18T05:40:20;18.35;;;13.40;;
46377;SDS011;32083;47.360;9.650;2023-11-18T05:42:47;28.70;;;14.60;;
46377;SDS011;32083;47.360;9.650;2023-11-18T05:45:17;16.80;;;13.30;;
46377;SDS011;32083;47.360;9.650;2023-11-18T05:47:55;48.25;;;16.73;;
46377;SDS011;32083;47.360;9.650;2023-11-18T05:50:22;21.80;;;13.00;;
46377;SDS011;32083;47.360;9.650;2023-11-18T05:52:53;28.38;;;14.43;;
46377;SDS011;32083;47.360;9.650;2023-11-18T05:55:20;45.22;;;16.60;;
46377;SDS011;32083;47.360;9.650;2023-11-18T05:57:46;41.00;;;16.27;;
46377;SDS011;32083;47.360;9.650;2023-11-18T06:00:12;19.40;;;14.10;;
46377;SDS011;32083;47.360;9.650;2023-11-18T06:02:41;29.83;;;18.00;;
46377;SDS011;32083;47.360;9.650;2023-11-18T06:05:08;51.28;;;17.95;;
46377;SDS011;32083;47.360;9.650;2023-11-18T06:07:34;54.38;;;17.02;;
46377;SDS011;32083;47.360;9.650;2023-11-18T06:10:01;66.38;;;19.05;;
46377;SDS011;32083;47.360;9.650;2023-11-18T06:12:30;53.40;;;17.70;;
46377;SDS011;32083;47.360;9.650;2023-11-18T06:14:57;36.53;;;15.63;;
46377;SDS011;32083;47.360;9.650;2023-11-18T06:17:23;66.40;;;18.85;;
46377;SDS011;32083;47.360;9.650;2023-11-18T06:19:50;56.85;;;17.92;;
46377;SDS011;32083;47.360;9.650;2023-11-18T06:22:16;39.78;;;16.58;;
46377;SDS011;32083;47.360;9.650;2023-11-18T06:24:42;55.17;;;17.23;;
46377;SDS011;32083;47.360;9.650;2023-11-18T06:27:08;175.43;;;29.42;;
46377;SDS011;32083;47.360;9.650;2023-11-18T06:29:35;202.20;;;26.73;;
46377;SDS011;32083;47.360;9.650;2023-11-18T06:32:01;74.45;;;15.98;;
46377;SDS011;32083;47.360;9.650;2023-11-18T06:34:27;171.02;;;24.30;;
46377;SDS011;32083;47.360;9.650;2023-11-18T06:36:53;143.95;;;23.25;;
46377;SDS011;32083;47.360;9.650;2023-11-18T06:39:21;85.07;;;17.48;;
46377;SDS011;32083;47.360;9.650;2023-11-18T06:41:54;31.25;;;12.85;;
46377;SDS011;32083;47.360;9.650;2023-11-18T06:44:19;84.30;;;17.25;;
46377;SDS011;32083;47.360;9.650;2023-11-18T06:46:49;30.38;;;13.43;;
46377;SDS011;32083;47.360;9.650;2023-11-18T06:49:16;36.20;;;13.60;;
46377;SDS011;32083;47.360;9.650;2023-11-18T06:51:42;11.93;;;9.40;;
46377;SDS011;32083;47.360;9.650;2023-11-18T06:54:08;14.05;;;11.15;;
46377;SDS011;32083;47.360;9.650;2023-11-18T06:56:35;14.93;;;11.95;;
46377;SDS011;32083;47.360;9.650;2023-11-18T06:59:08;21.38;;;11.05;;
46377;SDS011;32083;47.360;9.650;2023-11-18T07:01:43;55.22;;;13.20;;
46377;SDS011;32083;47.360;9.650;2023-11-18T07:04:09;72.22;;;17.40;;
46377;SDS011;32083;47.360;9.650;2023-11-18T07:06:36;21.30;;;11.50;;
46377;SDS011;32083;47.360;9.650;2023-11-18T07:09:06;29.38;;;13.63;;
46377;SDS011;32083;47.360;9.650;2023-11-18T07:11:43;15.13;;;11.20;;
46377;SDS011;32083;47.360;9.650;2023-11-18T07:14:09;24.27;;;12.88;;
46377;SDS011;32083;47.360;9.650;2023-11-18T07:16:40;20.65;;;11.52;;
46377;SDS011;32083;47.360;9.650;2023-11-18T07:19:07;19.70;;;11.73;;
46377;SDS011;32083;47.360;9.650;2023-11-18T07:21:33;17.40;;;10.93;;
46377;SDS011;32083;47.360;9.650;2023-11-18T07:24:00;12.90;;;9.50;;
46377;SDS011;32083;47.360;9.650;2023-11-18T07:26:27;26.75;;;13.95;;
46377;SDS011;32083;47.360;9.650;2023-11-18T07:28:53;26.73;;;12.43;;
46377;SDS011;32083;47.360;9.650;2023-11-18T07:31:19;32.10;;;12.68;;
46377;SDS011;32083;47.360;9.650;2023-11-18T07:33:45;37.13;;;13.68;;
46377;SDS011;32083;47.360;9.650;2023-11-18T07:36:17;38.65;;;15.00;;
46377;SDS011;32083;47.360;9.650;2023-11-18T07:38:46;66.60;;;17.85;;
46377;SDS011;32083;47.360;9.650;2023-11-18T07:41:12;50.13;;;14.82;;
46377;SDS011;32083;47.360;9.650;2023-11-18T07:43:49;28.58;;;13.77;;
46377;SDS011;32083;47.360;9.650;2023-11-18T07:46:16;29.48;;;12.65;;
46377;SDS011;32083;47.360;9.650;2023-11-18T07:48:42;120.32;;;25.05;;
46377;SDS011;32083;47.360;9.650;2023-11-18T07:51:08;21.02;;;12.65;;
46377;SDS011;32083;47.360;9.650;2023-11-18T07:53:34;48.80;;;15.07;;
46377;SDS011;32083;47.360;9.650;2023-11-18T07:56:01;31.10;;;13.63;;
46377;SDS011;32083;47.360;9.650;2023-11-18T07:58:27;20.55;;;12.98;;
46377;SDS011;32083;47.360;9.650;2023-11-18T08:00:53;17.20;;;12.18;;
46377;SDS011;32083;47.360;9.650;2023-11-18T08:03:20;16.10;;;11.75;;
46377;SDS011;32083;47.360;9.650;2023-11-18T08:05:46;40.10;;;25.45;;
46377;SDS011;32083;47.360;9.650;2023-11-18T08:08:14;22.67;;;15.68;;
46377;SDS011;32083;47.360;9.650;2023-11-18T08:10:42;11.95;;;8.63;;
46377;SDS011;32083;47.360;9.650;2023-11-18T08:13:10;15.32;;;10.73;;
46377;SDS011;32083;47.360;9.650;2023-11-18T08:15:40;15.90;;;10.90;;
46377;SDS011;32083;47.360;9.650;2023-11-18T08:18:07;17.80;;;13.70;;
46377;SDS011;32083;47.360;9.650;2023-11-18T08:20:35;19.90;;;13.23;;
46377;SDS011;32083;47.360;9.650;2023-11-18T08:23:01;18.75;;;13.70;;
46377;SDS011;32083;47.360;9.650;2023-11-18T08:25:29;18.15;;;13.13;;
46377;SDS011;32083;47.360;9.650;2023-11-18T08:27:59;18.27;;;13.30;;
46377;SDS011;32083;47.360;9.650;2023-11-18T08:30:28;16.30;;;10.82;;
46377;SDS011;32083;47.360;9.650;2023-11-18T08:32:54;14.85;;;11.30;;
46377;SDS011;32083;47.360;9.650;2023-11-18T08:35:20;14.13;;;10.30;;
46377;SDS011;32083;47.360;9.650;2023-11-18T08:37:47;16.55;;;12.65;;
46377;SDS011;32083;47.360;9.650;2023-11-18T08:40:13;12.73;;;9.27;;
46377;SDS011;32083;47.360;9.650;2023-11-18T08:42:43;5.43;;;3.80;;
46377;SDS011;32083;47.360;9.650;2023-11-18T08:45:18;3.83;;;2.83;;
46377;SDS011;32083;47.360;9.650;2023-11-18T08:48:03;2.80;;;2.50;;
46377;SDS011;32083;47.360;9.650;2023-11-18T08:50:32;2.25;;;1.88;;
46377;SDS011;32083;47.360;9.650;2023-11-18T08:52:59;4.75;;;2.72;;
46377;SDS011;32083;47.360;9.650;2023-11-18T08:55:30;2.45;;;2.20;;
46377;SDS011;32083;47.360;9.650;2023-11-18T08:58:29;3.05;;;2.58;;
46377;SDS011;32083;47.360;9.650;2023-11-18T09:00:59;3.65;;;2.78;;
46377;SDS011;32083;47.360;9.650;2023-11-18T09:03:37;3.25;;;1.90;;
46377;SDS011;32083;47.360;9.650;2023-11-18T09:06:08;2.25;;;1.83;;
46377;SDS011;32083;47.360;9.650;2023-11-18T09:08:50;2.58;;;1.80;;
46377;SDS011;32083;47.360;9.650;2023-11-18T09:11:20;2.75;;;1.92;;
46377;SDS011;32083;47.360;9.650;2023-11-18T09:13:48;2.92;;;1.80;;
46377;SDS011;32083;47.360;9.650;2023-11-18T09:16:18;4.88;;;2.42;;
46377;SDS011;32083;47.360;9.650;2023-11-18T09:18:50;2.13;;;1.80;;
46377;SDS011;32083;47.360;9.650;2023-11-18T09:21:16;2.33;;;1.80;;
46377;SDS011;32083;47.360;9.650;2023-11-18T09:23:50;3.25;;;1.92;;
46377;SDS011;32083;47.360;9.650;2023-11-18T09:26:16;2.35;;;1.90;;
46377;SDS011;32083;47.360;9.650;2023-11-18T09:28:43;2.63;;;1.90;;
46377;SDS011;32083;47.360;9.650;2023-11-18T09:31:14;1.70;;;1.48;;
46377;SDS011;32083;47.360;9.650;2023-11-18T09:33:42;1.90;;;1.40;;
46377;SDS011;32083;47.360;9.650;2023-11-18T09:36:17;1.75;;;1.10;;
46377;SDS011;32083;47.360;9.650;2023-11-18T09:38:44;1.83;;;1.40;;
46377;SDS011;32083;47.360;9.650;2023-11-18T09:41:14;2.58;;;1.77;;
46377;SDS011;32083;47.360;9.650;2023-11-18T09:43:41;2.53;;;2.15;;
46377;SDS011;32083;47.360;9.650;2023-11-18T09:46:14;1.40;;;1.10;;
46377;SDS011;32083;47.360;9.650;2023-11-18T09:48:46;2.45;;;1.70;;
46377;SDS011;32083;47.360;9.650;2023-11-18T09:51:15;1.30;;;1.20;;
46377;SDS011;32083;47.360;9.650;2023-11-18T09:53:49;1.70;;;1.35;;
46377;SDS011;32083;47.360;9.650;2023-11-18T09:59:29;1.95;;;1.40;;
46377;SDS011;32083;47.360;9.650;2023-11-18T10:02:01;1.83;;;1.30;;
46377;SDS011;32083;47.360;9.650;2023-11-18T10:04:29;1.60;;;1.30;;
46377;SDS011;32083;47.360;9.650;2023-11-18T10:06:56;2.20;;;1.40;;
46377;SDS011;32083;47.360;9.650;2023-11-18T10:09:23;2.70;;;1.58;;
46377;SDS011;32083;47.360;9.650;2023-11-18T10:12:08;2.65;;;2.22;;
46377;SDS011;32083;47.360;9.650;2023-11-18T10:14:39;2.80;;;2.40;;
46377;SDS011;32083;47.360;9.650;2023-11-18T10:17:11;2.85;;;1.70;;
46377;SDS011;32083;47.360;9.650;2023-11-18T10:19:52;2.40;;;2.10;;
46377;SDS011;32083;47.360;9.650;2023-11-18T10:22:22;4.68;;;1.80;;
46377;SDS011;32083;47.360;9.650;2023-11-18T10:24:55;2.72;;;1.60;;
46377;SDS011;32083;47.360;9.650;2023-11-18T10:27:24;1.63;;;1.40;;
46377;SDS011;32083;47.360;9.650;2023-11-18T10:29:55;2.40;;;1.60;;
46377;SDS011;32083;47.360;9.650;2023-11-18T10:32:22;1.95;;;1.25;;
46377;SDS011;32083;47.360;9.650;2023-11-18T10:34:54;1.70;;;1.30;;
46377;SDS011;32083;47.360;9.650;2023-11-18T10:37:22;2.17;;;1.30;;
46377;SDS011;32083;47.360;9.650;2023-11-18T10:39:48;1.80;;;1.48;;
46377;SDS011;32083;47.360;9.650;2023-11-18T10:42:17;1.65;;;1.52;;
46377;SDS011;32083;47.360;9.650;2023-11-18T10:44:54;3.08;;;1.92;;
46377;SDS011;32083;47.360;9.650;2023-11-18T10:47:23;2.60;;;1.73;;
46377;SDS011;32083;47.360;9.650;2023-11-18T10:49:55;1.88;;;1.20;;
46377;SDS011;32083;47.360;9.650;2023-11-18T10:52:22;3.42;;;1.63;;
46377;SDS011;32083;47.360;9.650;2023-11-18T10:54:51;1.90;;;1.30;;
46377;SDS011;32083;47.360;9.650;2023-11-18T10:57:21;1.63;;;1.23;;
46377;SDS011;32083;47.360;9.650;2023-11-18T11:02:38;2.65;;;1.45;;
46377;SDS011;32083;47.360;9.650;2023-11-18T11:05:09;2.47;;;1.40;;
46377;SDS011;32083;47.360;9.650;2023-11-18T11:07:57;1.70;;;1.02;;
46377;SDS011;32083;47.360;9.650;2023-11-18T11:10:25;2.75;;;1.75;;
46377;SDS011;32083;47.360;9.650;2023-11-18T11:12:54;2.33;;;1.45;;
46377;SDS011;32083;47.360;9.650;2023-11-18T11:15:30;3.08;;;1.23;;
46377;SDS011;32083;47.360;9.650;2023-11-18T11:18:06;2.78;;;1.85;;
46377;SDS011;32083;47.360;9.650;2023-11-18T11:20:38;3.22;;;2.17;;
46377;SDS011;32083;47.360;9.650;2023-11-18T11:26:06;2.30;;;1.83;;
46377;SDS011;32083;47.360;9.650;2023-11-18T11:29:02;1.58;;;1.10;;
46377;SDS011;32083;47.360;9.650;2023-11-18T11:31:36;1.58;;;1.30;;
46377;SDS011;32083;47.360;9.650;2023-11-18T11:34:14;1.65;;;1.30;;
46377;SDS011;32083;47.360;9.650;2023-11-18T11:36:48;1.98;;;1.38;;
46377;SDS011;32083;47.360;9.650;2023-11-18T11:39:16;2.08;;;1.67;;
46377;SDS011;32083;47.360;9.650;2023-11-18T11:41:53;2.17;;;1.15;;
46377;SDS011;32083;47.360;9.650;2023-11-18T11:44:24;8.40;;;3.05;;
46377;SDS011;32083;47.360;9.650;2023-11-18T11:46:59;2.13;;;1.20;;
46377;SDS011;32083;47.360;9.650;2023-11-18T11:49:30;1.42;;;0.80;;
46377;SDS011;32083;47.360;9.650;2023-11-18T11:52:09;2.35;;;0.95;;
46377;SDS011;32083;47.360;9.650;2023-11-18T11:54:47;1.65;;;1.00;;
46377;SDS011;32083;47.360;9.650;2023-11-18T11:57:22;3.17;;;1.95;;
46377;SDS011;32083;47.360;9.650;2023-11-18T12:02:24;2.78;;;1.60;;
46377;SDS011;32083;47.360;9.650;2023-11-18T12:04:57;2.13;;;1.35;;
46377;SDS011;32083;47.360;9.650;2023-11-18T12:07:27;1.92;;;1.33;;
46377;SDS011;32083;47.360;9.650;2023-11-18T12:09:57;2.40;;;1.48;;
46377;SDS011;32083;47.360;9.650;2023-11-18T12:12:26;3.00;;;1.75;;
46377;SDS011;32083;47.360;9.650;2023-11-18T12:14:53;2.35;;;1.63;;
46377;SDS011;32083;47.360;9.650;2023-11-18T12:23:07;2.60;;;1.55;;
46377;SDS011;32083;47.360;9.650;2023-11-18T12:25:40;2.60;;;1.48;;
46377;SDS011;32083;47.360;9.650;2023-11-18T12:28:07;2.63;;;1.83;;
46377;SDS011;32083;47.360;9.650;2023-11-18T12:33:02;2.38;;;1.55;;
46377;SDS011;32083;47.360;9.650;2023-11-18T12:41:37;2.47;;;1.35;;
46377;SDS011;32083;47.360;9.650;2023-11-18T12:46:59;1.15;;;0.85;;
46377;SDS011;32083;47.360;9.650;2023-11-18T12:49:46;2.60;;;1.30;;
46377;SDS011;32083;47.360;9.650;2023-11-18T12:52:20;2.95;;;1.35;;
46377;SDS011;32083;47.360;9.650;2023-11-18T12:54:47;1.90;;;1.17;;
46377;SDS011;32083;47.360;9.650;2023-11-18T12:57:19;1.73;;;1.23;;
46377;SDS011;32083;47.360;9.650;2023-11-18T12:59:48;3.03;;;1.40;;
46377;SDS011;32083;47.360;9.650;2023-11-18T13:02:15;2.72;;;1.75;;
46377;SDS011;32083;47.360;9.650;2023-11-18T13:04:48;2.28;;;1.70;;
46377;SDS011;32083;47.360;9.650;2023-11-18T13:07:15;2.88;;;1.33;;
46377;SDS011;32083;47.360;9.650;2023-11-18T13:09:46;1.70;;;1.17;;
46377;SDS011;32083;47.360;9.650;2023-11-18T13:12:13;2.70;;;1.20;;
46377;SDS011;32083;47.360;9.650;2023-11-18T13:14:41;2.47;;;1.08;;
46377;SDS011;32083;47.360;9.650;2023-11-18T13:17:12;3.40;;;1.65;;
46377;SDS011;32083;47.360;9.650;2023-11-18T13:19:40;1.52;;;1.20;;
46377;SDS011;32083;47.360;9.650;2023-11-18T13:22:08;1.50;;;1.10;;
46377;SDS011;32083;47.360;9.650;2023-11-18T13:24:39;1.95;;;1.30;;
46377;SDS011;32083;47.360;9.650;2023-11-18T13:27:06;2.42;;;1.60;;
46377;SDS011;32083;47.360;9.650;2023-11-18T13:29:37;1.95;;;1.33;;
46377;SDS011;32083;47.360;9.650;2023-11-18T13:32:08;2.35;;;1.40;;
46377;SDS011;32083;47.360;9.650;2023-11-18T13:34:36;2.25;;;1.30;;
46377;SDS011;32083;47.360;9.650;2023-11-18T13:37:08;2.58;;;1.58;;
46377;SDS011;32083;47.360;9.650;2023-11-18T13:39:35;3.22;;;1.30;;
46377;SDS011;32083;47.360;9.650;2023-11-18T13:42:19;2.63;;;1.20;;
46377;SDS011;32083;47.360;9.650;2023-11-18T13:44:48;2.55;;;1.95;;
46377;SDS011;32083;47.360;9.650;2023-11-18T13:47:18;3.90;;;2.22;;
46377;SDS011;32083;47.360;9.650;2023-11-18T13:49:53;6.30;;;3.83;;
46377;SDS011;32083;47.360;9.650;2023-11-18T13:52:20;2.38;;;1.58;;
46377;SDS011;32083;47.360;9.650;2023-11-18T13:54:47;2.17;;;1.27;;
46377;SDS011;32083;47.360;9.650;2023-11-18T13:57:15;2.45;;;1.60;;
46377;SDS011;32083;47.360;9.650;2023-11-18T13:59:41;3.22;;;2.00;;
46377;SDS011;32083;47.360;9.650;2023-11-18T14:02:09;3.10;;;1.88;;
46377;SDS011;32083;47.360;9.650;2023-11-18T14:04:35;3.30;;;1.50;;
46377;SDS011;32083;47.360;9.650;2023-11-18T14:07:03;3.88;;;1.42;;
46377;SDS011;32083;47.360;9.650;2023-11-18T14:09:30;3.22;;;2.08;;
46377;SDS011;32083;47.360;9.650;2023-11-18T14:12:01;2.88;;;1.50;;
46377;SDS011;32083;47.360;9.650;2023-11-18T14:14:28;3.08;;;1.38;;
46377;SDS011;32083;47.360;9.650;2023-11-18T14:16:54;2.35;;;2.13;;
46377;SDS011;32083;47.360;9.650;2023-11-18T14:19:24;2.22;;;1.60;;
46377;SDS011;32083;47.360;9.650;2023-11-18T14:21:53;4.65;;;1.70;;
46377;SDS011;32083;47.360;9.650;2023-11-18T14:24:20;3.00;;;1.70;;
46377;SDS011;32083;47.360;9.650;2023-11-18T14:26:48;2.13;;;1.50;;
46377;SDS011;32083;47.360;9.650;2023-11-18T14:29:15;3.10;;;2.50;;
46377;SDS011;32083;47.360;9.650;2023-11-18T14:31:41;3.05;;;2.50;;
46377;SDS011;32083;47.360;9.650;2023-11-18T14:34:07;3.55;;;1.73;;
46377;SDS011;32083;47.360;9.650;2023-11-18T14:36:36;3.35;;;3.05;;
46377;SDS011;32083;47.360;9.650;2023-11-18T14:39:02;6.55;;;4.88;;
46377;SDS011;32083;47.360;9.650;2023-11-18T14:41:29;10.60;;;8.07;;
46377;SDS011;32083;47.360;9.650;2023-11-18T14:43:56;7.32;;;4.72;;
46377;SDS011;32083;47.360;9.650;2023-11-18T14:46:23;4.13;;;3.40;;
46377;SDS011;32083;47.360;9.650;2023-11-18T14:48:49;4.35;;;3.72;;
46377;SDS011;32083;47.360;9.650;2023-11-18T14:51:16;2.63;;;2.00;;
46377;SDS011;32083;47.360;9.650;2023-11-18T14:53:42;3.20;;;2.40;;
46377;SDS011;32083;47.360;9.650;2023-11-18T14:56:09;2.50;;;1.52;;
46377;SDS011;32083;47.360;9.650;2023-11-18T14:58:35;2.20;;;1.60;;
46377;SDS011;32083;47.360;9.650;2023-11-18T15:01:01;3.67;;;2.08;;
46377;SDS011;32083;47.360;9.650;2023-11-18T15:03:28;1.73;;;1.35;;
46377;SDS011;32083;47.360;9.650;2023-11-18T15:05:56;2.63;;;1.40;;
46377;SDS011;32083;47.360;9.650;2023-11-18T15:08:22;2.75;;;1.38;;
46377;SDS011;32083;47.360;9.650;2023-11-18T15:10:48;2.50;;;1.50;;
46377;SDS011;32083;47.360;9.650;2023-11-18T15:13:14;3.92;;;1.60;;
46377;SDS011;32083;47.360;9.650;2023-11-18T15:15:46;3.55;;;1.45;;
46377;SDS011;32083;47.360;9.650;2023-11-18T15:18:12;3.00;;;1.20;;
46377;SDS011;32083;47.360;9.650;2023-11-18T15:20:48;6.75;;;1.60;;
46377;SDS011;32083;47.360;9.650;2023-11-18T15:23:15;6.05;;;1.65;;
46377;SDS011;32083;47.360;9.650;2023-11-18T15:25:42;2.55;;;1.80;;
46377;SDS011;32083;47.360;9.650;2023-11-18T15:28:08;2.92;;;1.42;;
46377;SDS011;32083;47.360;9.650;2023-11-18T15:30:38;2.05;;;1.48;;
46377;SDS011;32083;47.360;9.650;2023-11-18T15:33:05;2.28;;;1.50;;
46377;SDS011;32083;47.360;9.650;2023-11-18T15:35:37;2.05;;;1.48;;
46377;SDS011;32083;47.360;9.650;2023-11-18T15:38:06;4.03;;;1.75;;
46377;SDS011;32083;47.360;9.650;2023-11-18T15:40:41;5.85;;;5.35;;
46377;SDS011;32083;47.360;9.650;2023-11-18T15:43:08;5.30;;;4.25;;
46377;SDS011;32083;47.360;9.650;2023-11-18T15:45:36;7.55;;;4.50;;
46377;SDS011;32083;47.360;9.650;2023-11-18T15:48:03;6.32;;;3.03;;
46377;SDS011;32083;47.360;9.650;2023-11-18T15:50:30;5.22;;;2.80;;
46377;SDS011;32083;47.360;9.650;2023-11-18T15:52:57;7.85;;;3.28;;
46377;SDS011;32083;47.360;9.650;2023-11-18T15:55:23;5.10;;;3.83;;
46377;SDS011;32083;47.360;9.650;2023-11-18T15:57:52;4.88;;;3.40;;
46377;SDS011;32083;47.360;9.650;2023-11-18T16:00:22;2.90;;;2.30;;
46377;SDS011;32083;47.360;9.650;2023-11-18T16:02:55;5.28;;;2.72;;
46377;SDS011;32083;47.360;9.650;2023-11-18T16:05:25;3.15;;;2.50;;
46377;SDS011;32083;47.360;9.650;2023-11-18T16:07:52;3.55;;;2.78;;
46377;SDS011;32083;47.360;9.650;2023-11-18T16:10:20;3.88;;;2.78;;
46377;SDS011;32083;47.360;9.650;2023-11-18T16:12:51;4.07;;;2.75;;
46377;SDS011;32083;47.360;9.650;2023-11-18T16:15:21;5.93;;;2.80;;
46377;SDS011;32083;47.360;9.650;2023-11-18T16:17:48;4.15;;;2.63;;
46377;SDS011;32083;47.360;9.650;2023-11-18T16:20:15;4.25;;;2.85;;
46377;SDS011;32083;47.360;9.650;2023-11-18T16:22:43;4.65;;;2.70;;
46377;SDS011;32083;47.360;9.650;2023-11-18T16:25:21;3.10;;;2.30;;
46377;SDS011;32083;47.360;9.650;2023-11-18T16:27:50;3.45;;;2.15;;
46377;SDS011;32083;47.360;9.650;2023-11-18T16:30:17;2.45;;;2.00;;
46377;SDS011;32083;47.360;9.650;2023-11-18T16:32:49;3.22;;;2.05;;
46377;SDS011;32083;47.360;9.650;2023-11-18T16:35:19;4.32;;;2.20;;
46377;SDS011;32083;47.360;9.650;2023-11-18T16:37:46;2.97;;;2.28;;
46377;SDS011;32083;47.360;9.650;2023-11-18T16:40:13;5.10;;;2.58;;
46377;SDS011;32083;47.360;9.650;2023-11-18T16:42:44;3.72;;;2.40;;
46377;SDS011;32083;47.360;9.650;2023-11-18T16:45:11;5.38;;;2.90;;
46377;SDS011;32083;47.360;9.650;2023-11-18T16:47:38;2.85;;;2.25;;
46377;SDS011;32083;47.360;9.650;2023-11-18T16:50:06;2.53;;;2.05;;
46377;SDS011;32083;47.360;9.650;2023-11-18T16:52:39;2.85;;;1.98;;
46377;SDS011;32083;47.360;9.650;2023-11-18T16:55:05;3.88;;;2.42;;
46377;SDS011;32083;47.360;9.650;2023-11-18T16:57:33;3.55;;;2.70;;
46377;SDS011;32083;47.360;9.650;2023-11-18T17:00:06;3.75;;;2.53;;
46377;SDS011;32083;47.360;9.650;2023-11-18T17:02:50;4.47;;;2.33;;
46377;SDS011;32083;47.360;9.650;2023-11-18T17:05:20;3.23;;;2.20;;
46377;SDS011;32083;47.360;9.650;2023-11-18T17:07:49;2.88;;;2.17;;
46377;SDS011;32083;47.360;9.650;2023-11-18T17:10:15;4.03;;;3.10;;
46377;SDS011;32083;47.360;9.650;2023-11-18T17:12:42;3.17;;;2.72;;
46377;SDS011;32083;47.360;9.650;2023-11-18T17:15:13;6.85;;;3.90;;
46377;SDS011;32083;47.360;9.650;2023-11-18T17:20:08;4.63;;;2.95;;
46377;SDS011;32083;47.360;9.650;2023-11-18T17:22:38;5.63;;;2.80;;
46377;SDS011;32083;47.360;9.650;2023-11-18T17:27:41;2.08;;;1.58;;
46377;SDS011;32083;47.360;9.650;2023-11-18T17:30:08;3.50;;;2.75;;
46377;SDS011;32083;47.360;9.650;2023-11-18T17:32:40;2.63;;;2.13;;
46377;SDS011;32083;47.360;9.650;2023-11-18T17:35:07;6.15;;;3.28;;
46377;SDS011;32083;47.360;9.650;2023-11-18T17:37:37;3.20;;;2.38;;
46377;SDS011;32083;47.360;9.650;2023-11-18T17:40:03;1.75;;;1.63;;
46377;SDS011;32083;47.360;9.650;2023-11-18T17:42:30;3.38;;;1.90;;
46377;SDS011;32083;47.360;9.650;2023-11-18T17:44:56;2.40;;;1.98;;
46377;SDS011;32083;47.360;9.650;2023-11-18T17:47:22;2.80;;;2.10;;
46377;SDS011;32083;47.360;9.650;2023-11-18T17:49:51;4.18;;;2.17;;
46377;SDS011;32083;47.360;9.650;2023-11-18T17:52:18;2.88;;;2.08;;
46377;SDS011;32083;47.360;9.650;2023-11-18T17:54:44;2.53;;;1.50;;
46377;SDS011;32083;47.360;9.650;2023-11-18T17:57:10;3.95;;;2.28;;
46377;SDS011;32083;47.360;9.650;2023-11-18T17:59:36;3.75;;;1.73;;
46377;SDS011;32083;47.360;9.650;2023-11-18T18:02:02;2.67;;;1.92;;
46377;SDS011;32083;47.360;9.650;2023-11-18T18:04:28;4.32;;;2.65;;
46377;SDS011;32083;47.360;9.650;2023-11-18T18:06:55;5.05;;;2.20;;
46377;SDS011;32083;47.360;9.650;2023-11-18T18:09:21;2.53;;;1.65;;
46377;SDS011;32083;47.360;9.650;2023-11-18T18:11:49;2.08;;;1.60;;
46377;SDS011;32083;47.360;9.650;2023-11-18T18:14:15;3.65;;;1.92;;
46377;SDS011;32083;47.360;9.650;2023-11-18T18:16:41;3.85;;;1.83;;
46377;SDS011;32083;47.360;9.650;2023-11-18T18:19:07;2.55;;;2.13;;
46377;SDS011;32083;47.360;9.650;2023-11-18T18:21:33;2.72;;;1.92;;
46377;SDS011;32083;47.360;9.650;2023-11-18T18:23:59;2.50;;;1.73;;
46377;SDS011;32083;47.360;9.650;2023-11-18T18:26:25;2.40;;;2.08;;
46377;SDS011;32083;47.360;9.650;2023-11-18T18:28:51;3.33;;;2.42;;
46377;SDS011;32083;47.360;9.650;2023-11-18T18:31:17;2.90;;;2.22;;
46377;SDS011;32083;47.360;9.650;2023-11-18T18:33:43;2.80;;;2.00;;
46377;SDS011;32083;47.360;9.650;2023-11-18T18:36:09;2.58;;;1.63;;
46377;SDS011;32083;47.360;9.650;2023-11-18T18:38:35;2.53;;;1.80;;
46377;SDS011;32083;47.360;9.650;2023-11-18T18:41:01;2.35;;;1.50;;
46377;SDS011;32083;47.360;9.650;2023-11-18T18:43:27;1.83;;;1.42;;
46377;SDS011;32083;47.360;9.650;2023-11-18T18:45:53;2.53;;;1.60;;
46377;SDS011;32083;47.360;9.650;2023-11-18T18:48:19;2.47;;;1.38;;
46377;SDS011;32083;47.360;9.650;2023-11-18T18:50:45;2.58;;;1.50;;
46377;SDS011;32083;47.360;9.650;2023-11-18T18:53:11;2.63;;;2.13;;
46377;SDS011;32083;47.360;9.650;2023-11-18T18:55:37;3.45;;;1.85;;
46377;SDS011;32083;47.360;9.650;2023-11-18T18:58:04;4.22;;;2.30;;
46377;SDS011;32083;47.360;9.650;2023-11-18T19:00:29;5.28;;;2.63;;
46377;SDS011;32083;47.360;9.650;2023-11-18T19:02:55;2.70;;;1.65;;
46377;SDS011;32083;47.360;9.650;2023-11-18T19:05:21;2.03;;;1.73;;
46377;SDS011;32083;47.360;9.650;2023-11-18T19:07:49;3.10;;;1.85;;
46377;SDS011;32083;47.360;9.650;2023-11-18T19:10:24;3.08;;;1.80;;
46377;SDS011;32083;47.360;9.650;2023-11-18T19:12:53;2.88;;;1.42;;
46377;SDS011;32083;47.360;9.650;2023-11-18T19:15:25;2.20;;;1.60;;
46377;SDS011;32083;47.360;9.650;2023-11-18T19:17:51;2.70;;;1.75;;
46377;SDS011;32083;47.360;9.650;2023-11-18T19:20:17;3.03;;;1.90;;
46377;SDS011;32083;47.360;9.650;2023-11-18T19:22:46;3.30;;;1.80;;
46377;SDS011;32083;47.360;9.650;2023-11-18T19:25:12;2.47;;;1.70;;
46377;SDS011;32083;47.360;9.650;2023-11-18T19:27:40;3.05;;;1.90;;
46377;SDS011;32083;47.360;9.650;2023-11-18T19:30:07;5.30;;;1.63;;
46377;SDS011;32083;47.360;9.650;2023-11-18T19:32:37;2.30;;;1.83;;
46377;SDS011;32083;47.360;9.650;2023-11-18T19:35:04;2.63;;;1.77;;
46377;SDS011;32083;47.360;9.650;2023-11-18T19:37:30;2.47;;;2.28;;
46377;SDS011;32083;47.360;9.650;2023-11-18T19:39:56;7.93;;;3.20;;
46377;SDS011;32083;47.360;9.650;2023-11-18T19:42:22;2.58;;;1.67;;
46377;SDS011;32083;47.360;9.650;2023-11-18T19:44:48;2.35;;;1.58;;
46377;SDS011;32083;47.360;9.650;2023-11-18T19:47:15;2.92;;;2.10;;
46377;SDS011;32083;47.360;9.650;2023-11-18T19:49:41;3.47;;;2.00;;
46377;SDS011;32083;47.360;9.650;2023-11-18T19:52:07;3.05;;;2.30;;
46377;SDS011;32083;47.360;9.650;2023-11-18T19:54:33;2.53;;;1.92;;
46377;SDS011;32083;47.360;9.650;2023-11-18T19:56:59;3.67;;;2.00;;
46377;SDS011;32083;47.360;9.650;2023-11-18T19:59:25;2.58;;;2.33;;
46377;SDS011;32083;47.360;9.650;2023-11-18T20:01:51;3.50;;;2.40;;
46377;SDS011;32083;47.360;9.650;2023-11-18T20:04:22;2.90;;;2.60;;
46377;SDS011;32083;47.360;9.650;2023-11-18T20:06:50;3.08;;;2.10;;
46377;SDS011;32083;47.360;9.650;2023-11-18T20:09:16;2.97;;;2.35;;
46377;SDS011;32083;47.360;9.650;2023-11-18T20:11:51;3.15;;;2.63;;
46377;SDS011;32083;47.360;9.650;2023-11-18T20:14:19;4.13;;;2.53;;
46377;SDS011;32083;47.360;9.650;2023-11-18T20:16:47;3.13;;;2.03;;
46377;SDS011;32083;47.360;9.650;2023-11-18T20:19:14;2.83;;;2.03;;
46377;SDS011;32083;47.360;9.650;2023-11-18T20:21:40;1.90;;;1.55;;
46377;SDS011;32083;47.360;9.650;2023-11-18T20:24:06;3.05;;;1.40;;
46377;SDS011;32083;47.360;9.650;2023-11-18T20:26:37;2.28;;;1.67;;